Time;durP1;ratioP1;P1;durP2;ratioP2;P2;SDS_P1;SDS_P2;PMS_P1;PMS_P2;Temp;Humidity;BMP_temperature;BMP_pressure;BME280_temperature;BME280_humidity;BME280_pressure;Samples;Min_cycle;Max_cycle;Signal;HPM_P1;HPM_P2
2023/03/07 00:00:41;;;;;;;20.80;15.60;;;4.00;99.90;;;;;;2613537;54;20405;-72
2023/03/07 00:06:30;;;;;;;16.83;10.87;;;4.10;99.90;;;;;;2614326;54;20350;-71
2023/03/07 00:12:19;;;;;;;20.93;11.13;;;4.20;99.90;;;;;;2613338;54;20865;-71
2023/03/07 00:18:07;;;;;;;19.33;11.70;;;4.20;99.90;;;;;;2614667;39;20448;-71
2023/03/07 00:23:55;;;;;;;15.33;9.00;;;4.20;99.90;;;;;;2612901;54;20147;-71
2023/03/07 00:29:43;;;;;;;15.83;11.27;;;4.20;99.90;;;;;;2613943;54;20610;-71
2023/03/07 00:35:30;;;;;;;14.50;10.50;;;4.30;99.90;;;;;;2613870;46;20583;-72
2023/03/07 00:47:52;;;;;;;17.90;9.87;;;4.20;99.90;;;;;;2612555;54;20967;-72
2023/03/07 00:53:40;;;;;;;13.07;9.73;;;4.20;99.90;;;;;;2611705;54;20160;-71
2023/03/07 00:59:27;;;;;;;14.33;10.50;;;4.20;99.90;;;;;;2611933;54;21642;-72
2023/03/07 01:05:14;;;;;;;14.63;10.50;;;4.30;99.90;;;;;;2611659;54;20122;-72
2023/03/07 01:11:03;;;;;;;17.53;11.07;;;4.30;99.90;;;;;;2611785;54;20150;-71
2023/03/07 01:16:51;;;;;;;15.93;8.93;;;4.30;99.90;;;;;;2613002;54;20370;-71
2023/03/07 01:22:38;;;;;;;17.00;9.00;;;4.40;99.90;;;;;;2612867;54;20137;-71
2023/03/07 01:28:25;;;;;;;15.60;10.03;;;4.30;99.90;;;;;;2611773;39;20536;-71
2023/03/07 01:34:13;;;;;;;16.80;12.03;;;4.40;99.90;;;;;;2612949;54;20278;-71
2023/03/07 01:40:00;;;;;;;14.50;9.40;;;4.40;99.90;;;;;;2613658;54;20131;-71
2023/03/07 01:55:41;;;;;;;16.17;11.20;;;4.50;99.90;;;;;;2613171;54;20934;-71
2023/03/07 02:01:28;;;;;;;19.83;13.60;;;4.50;99.90;;;;;;2613222;54;20177;-71
2023/03/07 02:07:22;;;;;;;16.00;11.53;;;4.60;99.90;;;;;;2613846;54;20680;-71
2023/03/07 02:13:10;;;;;;;25.37;13.03;;;4.60;99.90;;;;;;2613481;54;20917;-71
2023/03/07 02:18:57;;;;;;;17.17;11.23;;;4.60;99.90;;;;;;2611869;54;20227;-70
2023/03/07 02:31:14;;;;;;;15.63;11.80;;;4.50;99.90;;;;;;2612117;54;20388;-71
2023/03/07 02:37:07;;;;;;;19.00;11.00;;;4.50;99.90;;;;;;2612210;54;20160;-70
2023/03/07 02:42:59;;;;;;;19.17;11.97;;;4.50;99.90;;;;;;2612056;54;20362;-71
2023/03/07 02:49:23;;;;;;;12.47;9.80;;;4.50;99.90;;;;;;2611893;54;20410;-70
2023/03/07 02:52:09;;;;;;;13.40;9.43;;;4.60;99.90;;;;;;2611646;54;20403;-70
2023/03/07 02:57:56;;;;;;;11.80;7.20;;;4.60;99.90;;;;;;2611118;54;20805;-70
2023/03/07 03:03:43;;;;;;;4.97;4.43;;;4.50;99.90;;;;;;2613219;54;20637;-70
2023/03/07 03:09:32;;;;;;;6.00;5.50;;;4.50;99.90;;;;;;2612121;54;20172;-71
2023/03/07 03:15:20;;;;;;;5.30;4.80;;;4.50;99.90;;;;;;2614362;54;20391;-69
2023/03/07 03:21:09;;;;;;;5.83;4.20;;;4.50;99.90;;;;;;2615114;54;20127;-70
2023/03/07 03:26:57;;;;;;;7.80;6.40;;;4.50;99.90;;;;;;2614886;54;20362;-69
2023/03/07 03:32:45;;;;;;;5.20;4.30;;;4.40;99.90;;;;;;2614233;54;20471;-71
2023/03/07 03:38:34;;;;;;;8.13;6.13;;;4.30;99.90;;;;;;2614714;54;20961;-71
2023/03/07 03:44:21;;;;;;;9.53;6.07;;;4.30;99.90;;;;;;2614917;54;20371;-71
2023/03/07 03:47:36;;;;;;;8.63;6.50;;;4.20;99.90;;;;;;2613544;46;20495;-72
2023/03/07 03:50:02;;;;;;;8.47;6.03;;;4.20;99.90;;;;;;2613828;54;20819;-71
2023/03/07 03:55:50;;;;;;;12.80;9.10;;;4.30;99.90;;;;;;2614271;54;20375;-72
2023/03/07 04:01:38;;;;;;;12.83;9.33;;;4.30;99.90;;;;;;2614641;54;20138;-73
2023/03/07 04:07:28;;;;;;;12.40;9.50;;;4.30;99.90;;;;;;2613730;54;20115;-72
2023/03/07 04:13:15;;;;;;;22.53;12.10;;;4.30;99.90;;;;;;2614100;54;21116;-73
2023/03/07 04:19:03;;;;;;;13.03;9.90;;;4.30;99.90;;;;;;2613323;54;20122;-71
2023/03/07 04:24:50;;;;;;;15.17;10.57;;;4.30;99.90;;;;;;2613164;54;20146;-72
2023/03/07 04:30:38;;;;;;;16.63;9.67;;;4.30;99.90;;;;;;2613655;54;20158;-72
2023/03/07 04:36:26;;;;;;;15.57;9.10;;;4.30;99.90;;;;;;2613167;54;20122;-72
2023/03/07 04:42:14;;;;;;;9.87;6.80;;;4.30;99.90;;;;;;2613064;54;20162;-73
2023/03/07 04:52:07;;;;;;;8.10;5.47;;;4.30;99.90;;;;;;2613994;54;20379;-73
2023/03/07 04:57:56;;;;;;;5.60;4.40;;;4.30;99.90;;;;;;2613633;54;20410;-72
2023/03/07 05:03:43;;;;;;;7.70;6.40;;;4.30;99.90;;;;;;2613246;54;20406;-72
2023/03/07 05:09:31;;;;;;;10.83;7.53;;;4.30;99.90;;;;;;2613543;54;20944;-73
2023/03/07 05:15:19;;;;;;;11.20;9.03;;;4.30;99.90;;;;;;2614393;39;20814;-72
2023/03/07 05:21:06;;;;;;;13.80;9.30;;;4.30;99.90;;;;;;2614394;54;20130;-71
2023/03/07 05:26:54;;;;;;;11.70;9.33;;;4.30;99.90;;;;;;2612553;39;20460;-72
2023/03/07 05:32:41;;;;;;;9.97;6.83;;;4.30;99.90;;;;;;2614643;54;20665;-72
2023/03/07 05:38:29;;;;;;;8.77;6.63;;;4.30;99.90;;;;;;2614604;54;20127;-73
2023/03/07 05:44:18;;;;;;;8.57;6.87;;;4.20;99.90;;;;;;2614117;39;20583;-71
2023/03/07 05:50:19;;;;;;;12.70;9.57;;;4.20;99.90;;;;;;2609421;54;20387;-73
2023/03/07 05:56:07;;;;;;;9.03;5.97;;;4.20;99.90;;;;;;2612627;54;20175;-72
2023/03/07 06:01:54;;;;;;;11.73;8.67;;;4.10;99.90;;;;;;2610551;54;20376;-73
2023/03/07 06:07:41;;;;;;;15.30;11.40;;;4.20;99.90;;;;;;2611418;39;20557;-71
2023/03/07 06:13:29;;;;;;;15.23;9.30;;;4.30;99.90;;;;;;2611022;54;20220;-77
2023/03/07 06:19:17;;;;;;;9.43;7.17;;;4.30;99.90;;;;;;2611072;54;20393;-72
2023/03/07 06:25:06;;;;;;;11.57;9.37;;;4.30;99.90;;;;;;2611977;54;20146;-73
2023/03/07 06:30:53;;;;;;;12.10;8.03;;;4.30;99.90;;;;;;2609717;54;20460;-71
2023/03/07 06:36:40;;;;;;;11.67;8.43;;;4.30;99.90;;;;;;2612652;54;20126;-71
2023/03/07 06:42:28;;;;;;;14.40;10.90;;;4.30;99.90;;;;;;2612105;54;20246;-71
2023/03/07 06:52:09;;;;;;;15.83;8.60;;;4.30;99.90;;;;;;2610892;54;20377;-70
2023/03/07 06:57:56;;;;;;;15.43;10.83;;;4.30;99.90;;;;;;2611784;39;20621;-71
2023/03/07 07:03:44;;;;;;;12.70;10.43;;;4.30;99.90;;;;;;2611043;54;20165;-71
2023/03/07 07:09:32;;;;;;;11.63;8.87;;;4.40;99.90;;;;;;2608054;54;20130;-71
2023/03/07 07:15:19;;;;;;;9.90;7.43;;;4.40;99.90;;;;;;2609386;31;20836;-71
2023/03/07 07:21:07;;;;;;;19.07;13.27;;;4.40;99.90;;;;;;2611494;54;20130;-72
2023/03/07 07:24:10;;;;;;;12.70;9.57;;;4.40;99.90;;;;;;2608163;54;20490;-71
2023/03/07 07:26:36;;;;;;;15.90;11.37;;;4.40;99.90;;;;;;2610204;54;20254;-72
2023/03/07 07:32:24;;;;;;;15.40;11.80;;;4.50;99.90;;;;;;2614374;54;20391;-72
2023/03/07 07:38:12;;;;;;;18.27;11.47;;;4.50;99.90;;;;;;2613569;54;20246;-71
2023/03/07 07:43:59;;;;;;;16.17;9.07;;;4.40;99.90;;;;;;2611800;54;20411;-71
2023/03/07 07:49:47;;;;;;;17.50;12.20;;;4.40;99.90;;;;;;2612424;54;20165;-72
2023/03/07 07:52:51;;;;;;;15.03;8.90;;;4.40;99.90;;;;;;2609764;54;21034;-71
2023/03/07 07:55:16;;;;;;;11.17;6.67;;;4.40;99.90;;;;;;2612740;39;20710;-72
2023/03/07 08:01:16;;;;;;;14.33;8.70;;;4.40;99.90;;;;;;2612767;31;20611;-72
2023/03/07 08:07:04;;;;;;;16.30;9.07;;;4.40;99.90;;;;;;2610389;46;20499;-71
2023/03/07 08:12:52;;;;;;;16.63;11.37;;;4.40;99.90;;;;;;2613132;39;20553;-71
2023/03/07 08:18:41;;;;;;;24.03;11.73;;;4.40;99.90;;;;;;2612017;54;20147;-72
2023/03/07 08:24:31;;;;;;;13.73;9.20;;;4.40;99.90;;;;;;2612624;54;20994;-72
2023/03/07 08:30:24;;;;;;;20.77;13.20;;;4.40;99.90;;;;;;2612547;54;20374;-70
2023/03/07 08:36:12;;;;;;;16.87;9.90;;;4.40;99.90;;;;;;2610235;54;20413;-72
2023/03/07 08:41:59;;;;;;;15.70;10.50;;;4.30;99.90;;;;;;2613219;46;20154;-71
2023/03/07 08:52:09;;;;;;;17.10;11.13;;;4.20;99.90;;;;;;2613645;54;20445;-72
2023/03/07 08:57:56;;;;;;;13.33;10.10;;;3.60;99.90;;;;;;2612431;54;20434;-71
2023/03/07 09:03:44;;;;;;;13.27;7.03;;;3.30;99.90;;;;;;2611400;54;20159;-72
2023/03/07 09:09:32;;;;;;;11.73;7.73;;;3.30;99.90;;;;;;2614015;54;20133;-72
2023/03/07 09:15:21;;;;;;;15.20;9.60;;;3.30;99.90;;;;;;2614309;54;20376;-72
2023/03/07 09:21:08;;;;;;;11.40;7.20;;;3.20;99.90;;;;;;2611248;54;20482;-71
2023/03/07 09:26:57;;;;;;;8.10;5.00;;;3.20;99.90;;;;;;2613715;54;20451;-71
2023/03/07 09:32:44;;;;;;;6.43;4.10;;;3.10;99.90;;;;;;2613953;54;20246;-72
2023/03/07 09:38:33;;;;;;;6.83;5.10;;;3.00;99.90;;;;;;2613611;54;20119;-71
2023/03/07 09:54:27;;;;;;;7.83;5.87;;;2.70;99.90;;;;;;2612706;54;20483;-71
2023/03/07 10:00:25;;;;;;;5.70;4.03;;;2.70;99.90;;;;;;2612931;54;20385;-71
2023/03/07 10:06:32;;;;;;;4.90;4.23;;;2.70;99.90;;;;;;2613931;54;20407;-71
2023/03/07 10:12:25;;;;;;;5.10;4.60;;;2.90;99.90;;;;;;2613866;54;20415;-71
2023/03/07 10:18:31;;;;;;;6.30;4.47;;;2.90;99.90;;;;;;2613098;54;20407;-71
2023/03/07 10:24:44;;;;;;;8.63;4.87;;;2.90;99.90;;;;;;2612685;54;20492;-71
2023/03/07 10:30:31;;;;;;;5.13;4.63;;;3.00;99.90;;;;;;2612092;54;20399;-72
2023/03/07 10:36:20;;;;;;;11.43;9.30;;;2.80;99.90;;;;;;2614397;39;20735;-71
2023/03/07 10:42:11;;;;;;;7.97;6.17;;;2.90;99.90;;;;;;2613489;54;20479;-71
2023/03/07 10:48:08;;;;;;;7.70;6.23;;;2.60;99.90;;;;;;2612885;54;20896;-69
2023/03/07 10:57:24;;;;;;;8.27;6.50;;;2.70;99.90;;;;;;2613936;54;20582;-72
2023/03/07 11:09:50;;;;;;;12.33;6.47;;;2.60;99.90;;;;;;2609837;54;20402;-71
2023/03/07 11:15:37;;;;;;;10.20;7.97;;;2.50;99.90;;;;;;2613285;39;20531;-71
2023/03/07 11:21:29;;;;;;;7.70;6.30;;;2.60;99.90;;;;;;2611758;54;20127;-71
2023/03/07 11:38:14;;;;;;;9.50;5.83;;;2.70;99.90;;;;;;2612880;54;20906;-71
2023/03/07 11:50:34;;;;;;;11.87;6.73;;;2.60;99.90;;;;;;2611633;54;20382;-72
2023/03/07 12:06:25;;;;;;;8.10;5.33;;;2.80;99.90;;;;;;2615487;39;20782;-71
2023/03/07 12:18:40;;;;;;;8.03;6.30;;;2.80;99.90;;;;;;2614578;54;20370;-72
2023/03/07 12:24:34;;;;;;;12.10;8.17;;;2.90;99.90;;;;;;2612227;54;20375;-70
2023/03/07 12:36:57;;;;;;;15.33;9.17;;;3.20;99.90;;;;;;2610800;54;20945;-72
2023/03/07 12:49:15;;;;;;;23.00;13.50;;;3.20;99.90;;;;;;2612962;54;20397;-71
2023/03/07 13:01:57;;;;;;;22.93;13.53;;;3.10;99.90;;;;;;2612182;54;20416;-71
2023/03/07 13:07:46;;;;;;;22.43;12.97;;;3.00;99.90;;;;;;2612647;31;20941;-71
2023/03/07 13:13:43;;;;;;;18.60;13.77;;;3.10;99.90;;;;;;2613934;54;20383;-73
2023/03/07 13:19:33;;;;;;;23.20;13.10;;;3.10;99.90;;;;;;2611114;54;20382;-71
2023/03/07 13:25:34;;;;;;;15.90;10.97;;;3.10;99.90;;;;;;2613807;54;20470;-71
2023/03/07 13:31:27;;;;;;;15.40;10.50;;;3.00;99.90;;;;;;2613515;54;20535;-71
2023/03/07 13:37:48;;;;;;;19.70;12.50;;;3.00;99.90;;;;;;2613108;54;20406;-71
2023/03/07 13:43:45;;;;;;;21.93;11.97;;;2.90;99.90;;;;;;2614324;39;20788;-70
2023/03/07 13:47:09;;;;;;;20.53;12.30;;;3.10;99.90;;;;;;2612815;46;20432;-71
2023/03/07 13:49:38;;;;;;;14.43;11.37;;;3.00;99.90;;;;;;2613121;54;20429;-72
2023/03/07 13:59:43;;;;;;;21.40;11.37;;;3.60;99.90;;;;;;2612848;54;21020;-71
2023/03/07 14:05:32;;;;;;;17.67;12.37;;;3.50;99.90;;;;;;2612202;54;20391;-71
2023/03/07 14:11:23;;;;;;;19.00;12.20;;;3.40;99.90;;;;;;2610595;39;20821;-71
2023/03/07 14:24:06;;;;;;;18.10;11.57;;;3.10;99.90;;;;;;2612232;54;20917;-71
2023/03/07 14:29:55;;;;;;;19.97;13.10;;;3.30;99.90;;;;;;2612733;54;20499;-71
2023/03/07 14:35:44;;;;;;;16.07;11.50;;;3.10;99.90;;;;;;2614214;54;20368;-71
2023/03/07 14:54:51;;;;;;;22.27;12.63;;;3.00;99.90;;;;;;2612158;54;21005;-71
2023/03/07 15:00:38;;;;;;;25.67;13.77;;;2.90;99.90;;;;;;2611531;54;20886;-71
2023/03/07 15:06:28;;;;;;;23.00;14.97;;;2.90;99.90;;;;;;2613616;54;20126;-71
2023/03/07 15:18:37;;;;;;;21.00;12.97;;;3.00;99.90;;;;;;2611018;54;21027;-70
2023/03/07 15:24:37;;;;;;;22.10;15.40;;;3.10;99.90;;;;;;2613555;54;20939;-71
2023/03/07 15:36:42;;;;;;;14.07;10.57;;;2.90;99.90;;;;;;2613188;54;20379;-71
2023/03/07 15:42:30;;;;;;;14.90;10.30;;;2.80;99.90;;;;;;2614307;54;20134;-71
2023/03/07 15:48:24;;;;;;;10.93;7.93;;;2.70;99.90;;;;;;2612848;54;20167;-71
2023/03/07 15:54:46;;;;;;;14.50;9.87;;;2.70;99.90;;;;;;2613794;54;20363;-72
2023/03/07 16:00:37;;;;;;;15.67;9.23;;;2.70;99.90;;;;;;2610815;54;20423;-70
2023/03/07 16:17:24;;;;;;;14.43;9.80;;;2.70;99.90;;;;;;2612063;54;20468;-72
2023/03/07 16:23:12;;;;;;;14.33;10.17;;;2.60;99.90;;;;;;2612594;54;20896;-71
2023/03/07 16:29:00;;;;;;;16.10;11.00;;;2.50;99.90;;;;;;2612167;46;20534;-71
2023/03/07 16:34:48;;;;;;;15.60;10.30;;;2.50;99.90;;;;;;2612840;54;20383;-71
2023/03/07 16:40:41;;;;;;;17.03;12.33;;;2.40;99.90;;;;;;2613720;54;20346;-71
2023/03/07 16:46:29;;;;;;;17.23;10.70;;;2.30;99.90;;;;;;2613925;54;20416;-72
2023/03/07 16:52:17;;;;;;;15.27;11.50;;;2.10;99.90;;;;;;2610893;54;20910;-72
2023/03/07 16:58:23;;;;;;;17.40;11.50;;;2.10;99.90;;;;;;2610836;54;20245;-71
2023/03/07 17:04:10;;;;;;;18.50;10.67;;;2.10;99.90;;;;;;2612206;31;20860;-71
2023/03/07 17:09:58;;;;;;;9.77;6.80;;;2.10;99.90;;;;;;2608991;54;20382;-72
2023/03/07 17:15:45;;;;;;;14.00;6.97;;;1.80;99.90;;;;;;2611128;54;20703;-71
2023/03/07 17:21:33;;;;;;;10.80;8.07;;;1.70;99.90;;;;;;2609669;39;20803;-71
2023/03/07 17:27:20;;;;;;;7.70;6.57;;;1.80;99.90;;;;;;2610627;54;20126;-71
2023/03/07 17:33:10;;;;;;;9.23;7.00;;;1.80;99.90;;;;;;2608538;54;20363;-71
2023/03/07 17:38:57;;;;;;;19.27;10.00;;;1.80;99.90;;;;;;2608030;46;20389;-71
2023/03/07 17:44:48;;;;;;;10.10;7.80;;;1.70;99.90;;;;;;2609702;46;20153;-71
2023/03/07 17:50:38;;;;;;;9.93;7.20;;;1.70;99.90;;;;;;2608655;54;20419;-73
2023/03/07 17:59:47;;;;;;;12.80;8.67;;;1.50;99.90;;;;;;2609215;54;20377;-71
2023/03/07 18:05:37;;;;;;;12.40;8.90;;;1.50;99.90;;;;;;2608629;54;20731;-71
2023/03/07 18:11:25;;;;;;;14.37;12.17;;;1.40;99.90;;;;;;2611322;54;20394;-71
2023/03/07 18:17:13;;;;;;;12.13;9.60;;;1.50;99.90;;;;;;2609290;54;20415;-71
2023/03/07 18:23:01;;;;;;;21.80;11.63;;;1.50;99.90;;;;;;2611155;54;20122;-70
2023/03/07 18:28:49;;;;;;;14.73;10.77;;;1.60;99.90;;;;;;2606207;54;20238;-71
2023/03/07 18:34:37;;;;;;;21.97;12.97;;;1.60;99.90;;;;;;2600955;54;20378;-72
2023/03/07 18:40:25;;;;;;;22.70;12.30;;;1.50;99.90;;;;;;2602495;54;20976;-72
2023/03/07 18:46:16;;;;;;;23.53;13.50;;;1.40;99.90;;;;;;2605565;54;20625;-70
2023/03/07 18:52:04;;;;;;;24.97;15.37;;;1.50;99.90;;;;;;2608484;54;20353;-71
2023/03/07 18:55:10;;;;;;;26.33;16.13;;;1.50;99.90;;;;;;2602109;54;20378;-72
2023/03/07 18:57:35;;;;;;;27.53;14.50;;;1.50;99.90;;;;;;2600970;47;20158;-72
2023/03/07 19:03:23;;;;;;;29.60;17.37;;;1.40;99.90;;;;;;2611287;54;20183;-71
2023/03/07 19:09:14;;;;;;;30.17;17.57;;;1.40;99.90;;;;;;2606536;46;20298;-70
2023/03/07 19:15:02;;;;;;;28.23;18.20;;;1.40;99.90;;;;;;2602476;54;20970;-72
2023/03/07 19:20:50;;;;;;;40.30;23.07;;;1.40;99.90;;;;;;2609567;54;20439;-73
2023/03/07 19:23:53;;;;;;;45.50;25.57;;;1.50;99.90;;;;;;2613054;54;20424;-71
2023/03/07 19:26:20;;;;;;;33.90;20.67;;;1.40;99.90;;;;;;2614229;54;20170;-72
2023/03/07 19:32:08;;;;;;;37.90;23.13;;;1.40;99.90;;;;;;2602748;54;20458;-71
2023/03/07 19:37:56;;;;;;;35.80;20.20;;;1.40;99.90;;;;;;2600597;54;20637;-72
2023/03/07 19:43:44;;;;;;;36.63;20.30;;;1.50;99.90;;;;;;2601466;54;20130;-72
2023/03/07 19:49:33;;;;;;;39.57;21.20;;;1.40;99.90;;;;;;2610918;54;20406;-71
2023/03/07 20:02:05;;;;;;;31.67;19.07;;;1.40;99.90;;;;;;2612262;54;20423;-72
2023/03/07 20:07:55;;;;;;;38.13;20.63;;;1.40;99.90;;;;;;2612506;54;20371;-71
2023/03/07 20:13:46;;;;;;;34.13;20.27;;;1.50;99.90;;;;;;2612946;54;20410;-71
2023/03/07 20:19:34;;;;;;;26.57;16.63;;;1.60;99.90;;;;;;2610535;54;20367;-72
2023/03/07 20:25:23;;;;;;;21.80;15.73;;;1.50;99.90;;;;;;2610838;54;20134;-71
2023/03/07 20:31:12;;;;;;;30.00;17.10;;;1.40;99.90;;;;;;2609555;54;20422;-71
2023/03/07 20:36:59;;;;;;;22.27;15.57;;;1.40;99.90;;;;;;2611768;54;20378;-71
2023/03/07 20:42:47;;;;;;;16.17;10.60;;;1.40;99.90;;;;;;2609436;54;20199;-71
2023/03/07 20:48:36;;;;;;;26.77;14.20;;;1.40;99.90;;;;;;2609829;46;20158;-72
2023/03/07 20:54:23;;;;;;;18.30;11.83;;;1.40;99.90;;;;;;2612812;54;20471;-71
2023/03/07 21:00:12;;;;;;;20.00;13.20;;;1.40;99.90;;;;;;2610353;54;20134;-71
2023/03/07 21:06:01;;;;;;;23.67;15.73;;;1.40;99.90;;;;;;2611432;54;20389;-71
2023/03/07 21:11:48;;;;;;;25.77;14.37;;;1.40;99.90;;;;;;2613965;54;20354;-70
2023/03/07 21:17:36;;;;;;;25.17;16.60;;;1.40;99.90;;;;;;2613264;39;20200;-71
2023/03/07 21:23:24;;;;;;;27.90;16.90;;;1.40;99.90;;;;;;2612385;54;20226;-72
2023/03/07 21:29:12;;;;;;;32.27;17.43;;;1.40;99.90;;;;;;2610561;54;20394;-70
2023/03/07 21:35:00;;;;;;;30.73;17.37;;;1.40;99.90;;;;;;2610710;54;20391;-71
2023/03/07 21:40:47;;;;;;;28.00;15.57;;;1.40;99.90;;;;;;2609706;54;20691;-71
2023/03/07 21:46:36;;;;;;;24.90;17.50;;;1.40;99.90;;;;;;2610507;54;20142;-71
2023/03/07 21:52:23;;;;;;;26.97;16.83;;;1.40;99.90;;;;;;2612104;54;20399;-72
2023/03/07 21:55:15;;;;;;;26.77;16.80;;;1.40;99.90;;;;;;2611364;54;20491;-71
2023/03/07 21:57:41;;;;;;;32.77;16.83;;;1.40;99.90;;;;;;2610697;54;20155;-71
2023/03/07 22:03:29;;;;;;;25.07;14.60;;;1.40;99.90;;;;;;2613341;54;20158;-72
2023/03/07 22:09:18;;;;;;;27.80;17.30;;;1.40;99.90;;;;;;2613436;54;20130;-71
2023/03/07 22:15:07;;;;;;;22.10;15.13;;;1.40;99.90;;;;;;2613233;54;20378;-71
2023/03/07 22:20:54;;;;;;;18.67;12.30;;;1.50;99.90;;;;;;2613473;54;20774;-70
2023/03/07 22:26:42;;;;;;;21.40;13.70;;;1.50;99.90;;;;;;2612865;39;20527;-70
2023/03/07 22:32:30;;;;;;;15.97;10.93;;;1.60;99.90;;;;;;2613022;54;20127;-71
2023/03/07 22:38:19;;;;;;;35.57;16.50;;;1.60;99.90;;;;;;2612489;54;20723;-71
2023/03/07 22:44:07;;;;;;;23.33;16.20;;;1.60;99.90;;;;;;2613185;54;20946;-72
2023/03/07 22:49:55;;;;;;;17.20;14.10;;;1.60;99.90;;;;;;2612083;54;20131;-71
2023/03/07 22:59:45;;;;;;;23.73;16.60;;;1.60;99.90;;;;;;2611156;54;20391;-71
2023/03/07 23:05:33;;;;;;;25.90;17.17;;;1.60;99.90;;;;;;2612119;54;20951;-70
2023/03/07 23:11:22;;;;;;;24.07;15.33;;;1.60;99.90;;;;;;2611723;54;20968;-72
2023/03/07 23:17:10;;;;;;;23.80;14.07;;;1.60;99.90;;;;;;2608933;54;20367;-70
2023/03/07 23:22:58;;;;;;;25.37;16.73;;;1.60;99.90;;;;;;2614661;54;20133;-71
2023/03/07 23:28:45;;;;;;;21.23;14.10;;;1.60;99.90;;;;;;2612672;54;20226;-70
2023/03/07 23:34:34;;;;;;;25.23;16.77;;;1.60;99.90;;;;;;2613466;54;20211;-71
2023/03/07 23:40:22;;;;;;;25.10;16.73;;;1.60;99.90;;;;;;2613006;54;21044;-71
2023/03/07 23:46:09;;;;;;;27.70;17.13;;;1.60;99.90;;;;;;2613363;54;20234;-71
2023/03/07 23:51:57;;;;;;;26.33;18.97;;;1.60;99.90;;;;;;2612790;54;20130;-71
2023/03/07 23:55:14;;;;;;;28.50;18.20;;;1.50;99.90;;;;;;2613089;46;20415;-71
2023/03/07 23:57:40;;;;;;;35.20;20.17;;;1.50;99.90;;;;;;2613336;54;20166;-71
